White Bluff, TN (37187)

10:18 AM CDT on September 28, 2016 (GMT -0500)
The Chapel in the Woods Weather | | Change Station

Elev 827 ft 36.11 °N, 87.21 °W | Updated 5 seconds ago

Partly Cloudy
Partly Cloudy
72.7 °F
Feels Like 77 °F
N
1.1
Wind Variable Wind from ENE
Gusts 6.8 mph

Today
High -- | Low -- °F
--% Chance of Precip.
Yesterday
High -- | Low -- °F
Precip. -- in
Pressure 29.94 in
Visibility 10.0 miles
Clouds Few 16000 ft
Heat Index 77 °F
Dew Point 55 °F
Humidity 53%
Rainfall 0.00 in
Snow Depth Not available.
6:42 AM 6:36 PM
Waning Crescent, 5% visible
METAR KBNA 281453Z 18009KT 10SM FEW160 22/07 A2994 RMK AO2 SLP136 T02170072 51005
Pressure 29.94 in
Visibility 10.0 miles
Clouds Few 16000 ft
Heat Index 77 °F
Dew Point 55 °F
Humidity 53%
Rainfall 0.00 in
Snow Depth Not available.
6:42 AM 6:36 PM
Waning Crescent, 5% visible
METAR KBNA 281453Z 18009KT 10SM FEW160 22/07 A2994 RMK AO2 SLP136 T02170072 51005

10-Day Weather Forecast

Almanac

Astronomy

Sep. 28, 2016 Rise Set
Actual Time
Civil Twilight
Nautical Twilight
Astronomical Twilight
Moon
Length of Visible Light
Length of Day
Tomorrow will be .
, % of the Moon is Illuminated

Today's Extremes

State Highs State Lows

Community

WunderPhotos

Upload Photos

1,942,280 photos uploaded!

WunderBlog® & News

Nearby

Air Quality

  Air Quality AQ Index Pollutant
Not available.

Snow Depth

Station Depth Elevation

Earthquake Activity

City Distance Mag. Time & Date
Minimum magnitude displayed is 2.5.

Coastal Water Temperatures

Place Temperature

Stations

Nearby Weather Stations

Station Location Temp. Windchill Dew Point Humidity Wind Precip. Elev Updated Type
                   

Watches & Warnings

There are currently no watches in effect.